Hlavní strana
METAR-TAF:

METAR-TAF

Letiště :

Wrigley, Severozápadní teritoria, Kanada

zeměpisná šířka: 63-13N, zeměpisná délka: 123-26W, výška: 150 m

Aktuální stav počasí

Zpráva byla vytvořena před 19 hodinami a 25 minutami, v 22:00 UTC
Jihovýchodní vítr 11 kt
Teplota 8°C
Vlhkost vzduchu 57%
Tlak 999 hPa
Viditelnost: 24.1 km
Skoro jasno ve výšce 3000 ft
Skoro jasno ve výšce 7500 ft
Oblačno až skoro zataženo ve výšce 9600 ft
Oblačno až skoro zataženo ve výšce 24000 ft

METAR: CYWY 182200Z 14011KT 15SM FEW030 FEW075 BKN096 BKN240 08/00 A2950 RMK CU1AC1AC6CI1 AC TR CI TR // LAST STFD OBS/ NEXT 221400 UTC // SLP998

Čas: 11:25 (17:25 UTC)


TAF: chybějící

Stav a předpovědi počasí z více než 4 000 letišť (zprávy METAR a TAF).

Červené a žluté tečky na mapě představují dostupné meteorologické stanice.

Když kurzor umístíte na tečku, zobrazí se název stanice.

Pak kliknutím zobrazíte stav a předpověď počasí.

Chcete-li změnit mapu, kliknutím na zelené tlačítko se znaménkem +mapu přiblížíte, kliknutím na zelené tlačítko se znaménkem – mapu oddálíte a kliknutím na zelené šipky přejdete na sousední mapy.


METAR-TAF: